Time;durP1;ratioP1;P1;durP2;ratioP2;P2;SDS_P1;SDS_P2;PMS_P1;PMS_P2;Temp;Humidity;BMP_temperature;BMP_pressure;BME280_temperature;BME280_humidity;BME280_pressure;Samples;Min_cycle;Max_cycle;Signal;HPM_P1;HPM_P2
2021/05/28 00:00:30;;;;;;;8.20;4.50;;;13.50;90.60;;;;;;4973328;28;20274;-85
2021/05/28 00:02:56;;;;;;;5.43;3.70;;;13.40;91.00;;;;;;4973247;28;20935;-85
2021/05/28 00:05:22;;;;;;;7.33;4.73;;;13.30;91.40;;;;;;4972732;28;20182;-85
2021/05/28 00:07:48;;;;;;;16.40;4.40;;;13.30;91.70;;;;;;4973133;28;20446;-85
2021/05/28 00:10:14;;;;;;;7.97;4.03;;;13.20;92.00;;;;;;4974608;28;20191;-84
2021/05/28 00:12:40;;;;;;;7.82;4.35;;;13.30;92.20;;;;;;4974560;28;20537;-85
2021/05/28 00:15:09;;;;;;;7.90;4.45;;;13.30;92.10;;;;;;4973158;28;20176;-84
2021/05/28 00:17:35;;;;;;;10.35;5.68;;;13.20;92.70;;;;;;4973641;28;20176;-84
2021/05/28 00:20:02;;;;;;;9.48;6.00;;;13.20;93.00;;;;;;4973566;28;20176;-84
2021/05/28 00:22:27;;;;;;;9.63;5.65;;;13.10;93.60;;;;;;4974509;28;20192;-85
2021/05/28 00:24:53;;;;;;;10.67;6.27;;;13.10;94.10;;;;;;4972319;28;20172;-84
2021/05/28 00:27:19;;;;;;;13.90;6.50;;;12.90;94.70;;;;;;4973739;28;20184;-83
2021/05/28 00:29:44;;;;;;;10.23;6.47;;;12.90;95.00;;;;;;4972654;28;20486;-85
2021/05/28 00:32:10;;;;;;;13.03;6.80;;;12.90;95.30;;;;;;4971094;28;20197;-84
2021/05/28 00:34:36;;;;;;;14.07;7.10;;;12.80;95.80;;;;;;4971962;28;20168;-83
2021/05/28 00:37:02;;;;;;;12.17;6.23;;;12.80;96.10;;;;;;4973096;28;20172;-83
2021/05/28 00:39:28;;;;;;;14.80;6.50;;;12.80;96.20;;;;;;4973043;28;20418;-84
2021/05/28 00:41:54;;;;;;;16.30;7.20;;;12.90;95.90;;;;;;4972387;28;20435;-84
2021/05/28 00:44:23;;;;;;;17.20;7.50;;;12.90;96.00;;;;;;4972132;28;20431;-84
2021/05/28 00:46:48;;;;;;;14.25;7.18;;;12.80;96.30;;;;;;4970874;28;20175;-84
2021/05/28 00:49:14;;;;;;;11.97;6.77;;;12.80;96.70;;;;;;4972016;28;20248;-84
2021/05/28 00:51:40;;;;;;;13.57;7.83;;;12.80;96.60;;;;;;4971776;28;20463;-84
2021/05/28 00:54:06;;;;;;;17.10;7.03;;;12.80;96.80;;;;;;4972208;28;20248;-84
2021/05/28 00:56:32;;;;;;;20.40;7.70;;;12.80;96.90;;;;;;4972259;28;20443;-85
2021/05/28 00:59:02;;;;;;;15.02;6.85;;;12.80;96.70;;;;;;4971366;28;20195;-84
2021/05/28 01:01:28;;;;;;;17.80;7.53;;;12.80;96.80;;;;;;4971668;28;20242;-84
2021/05/28 01:03:54;;;;;;;13.03;7.97;;;12.90;96.60;;;;;;4972042;28;20647;-84
2021/05/28 01:06:21;;;;;;;13.13;7.00;;;13.00;96.30;;;;;;4972140;28;20420;-84
2021/05/28 01:08:47;;;;;;;10.70;6.75;;;13.10;95.80;;;;;;4973694;28;20451;-85
2021/05/28 01:11:12;;;;;;;13.80;7.30;;;13.10;95.40;;;;;;4975437;28;20208;-84
2021/05/28 01:13:38;;;;;;;9.27;6.80;;;13.20;94.80;;;;;;4974981;28;20816;-84
2021/05/28 01:16:04;;;;;;;12.33;6.03;;;13.20;95.00;;;;;;4975643;28;20163;-84
2021/05/28 01:18:30;;;;;;;11.98;5.93;;;13.30;94.90;;;;;;4974683;28;20663;-84
2021/05/28 01:20:56;;;;;;;10.60;5.73;;;13.30;93.50;;;;;;4974792;28;20202;-85
2021/05/28 01:23:22;;;;;;;9.50;6.13;;;13.20;93.90;;;;;;4978390;28;20446;-84
2021/05/28 01:25:48;;;;;;;12.67;6.13;;;13.20;93.90;;;;;;4979098;28;20945;-84
2021/05/28 01:28:14;;;;;;;16.73;7.13;;;13.20;93.50;;;;;;4979015;28;20490;-83
2021/05/28 01:30:40;;;;;;;11.75;6.65;;;13.20;93.40;;;;;;4978729;28;20431;-84
2021/05/28 01:33:06;;;;;;;12.23;6.47;;;13.10;93.70;;;;;;4979417;28;20183;-91
2021/05/28 01:35:32;;;;;;;9.10;5.50;;;13.10;93.80;;;;;;4975815;28;20419;-90
2021/05/28 01:37:57;;;;;;;15.00;6.70;;;13.20;93.70;;;;;;4975841;28;20175;-92
2021/05/28 01:40:23;;;;;;;18.73;6.67;;;13.20;93.20;;;;;;4975407;28;20994;-92
2021/05/28 01:42:50;;;;;;;12.98;5.68;;;13.20;93.30;;;;;;4975400;28;20419;-91
2021/05/28 01:45:16;;;;;;;8.75;5.10;;;13.30;92.80;;;;;;4975366;28;20229;-91
2021/05/28 01:47:42;;;;;;;9.88;5.90;;;13.30;92.30;;;;;;4974767;28;20172;-91
2021/05/28 01:50:12;;;;;;;12.80;5.70;;;13.30;91.90;;;;;;4974438;28;20203;-91
2021/05/28 01:52:38;;;;;;;8.48;5.35;;;13.30;92.40;;;;;;4974352;28;20510;-92
2021/05/28 01:55:07;;;;;;;7.18;5.05;;;13.30;92.40;;;;;;4974306;28;20197;-91
2021/05/28 01:57:33;;;;;;;9.95;5.45;;;13.40;92.40;;;;;;4974164;28;20180;-91
2021/05/28 01:59:59;;;;;;;8.40;4.40;;;13.40;92.50;;;;;;4974445;28;20229;-91
2021/05/28 02:02:24;;;;;;;13.02;4.97;;;13.40;92.50;;;;;;4973714;28;20447;-91
2021/05/28 02:04:50;;;;;;;8.80;4.70;;;13.40;92.20;;;;;;4973402;28;20184;-91
2021/05/28 02:07:16;;;;;;;6.80;4.77;;;13.40;92.40;;;;;;4974820;28;20255;-91
2021/05/28 02:09:42;;;;;;;7.13;4.50;;;13.50;92.20;;;;;;4973250;28;21000;-91
2021/05/28 02:12:08;;;;;;;10.37;4.67;;;13.50;91.90;;;;;;4973795;28;20436;-91
2021/05/28 02:14:34;;;;;;;9.10;4.32;;;13.60;91.80;;;;;;4973544;28;20183;-92
2021/05/28 02:17:00;;;;;;;8.60;4.88;;;13.60;91.70;;;;;;4973540;28;20193;-92
2021/05/28 02:19:26;;;;;;;9.83;4.33;;;13.60;91.60;;;;;;4973841;28;20214;-91
2021/05/28 02:21:53;;;;;;;8.83;4.17;;;13.60;91.10;;;;;;4973904;28;20439;-91
2021/05/28 02:24:19;;;;;;;7.25;4.72;;;13.70;90.70;;;;;;4973752;28;20431;-91
2021/05/28 02:26:47;;;;;;;9.18;4.07;;;13.60;90.60;;;;;;4974123;28;20698;-91
2021/05/28 02:29:14;;;;;;;5.45;3.53;;;13.60;90.70;;;;;;4973722;28;20298;-91
2021/05/28 02:31:40;;;;;;;10.10;3.70;;;13.60;90.30;;;;;;4973479;28;20195;-91
2021/05/28 02:34:07;;;;;;;9.38;3.88;;;13.60;90.10;;;;;;4973561;28;20176;-91
2021/05/28 02:36:33;;;;;;;9.82;3.80;;;13.60;89.40;;;;;;4974089;28;20172;-91
2021/05/28 02:38:59;;;;;;;9.52;3.80;;;13.60;89.50;;;;;;4973417;28;20576;-91
2021/05/28 02:41:25;;;;;;;7.72;4.40;;;13.50;89.20;;;;;;4973718;28;20192;-90
2021/05/28 02:43:51;;;;;;;8.05;3.80;;;13.40;89.50;;;;;;4973386;28;20176;-90
2021/05/28 02:46:17;;;;;;;4.45;3.10;;;13.50;89.60;;;;;;4973002;28;20212;-90
2021/05/28 02:48:43;;;;;;;7.20;4.53;;;13.50;89.60;;;;;;4972565;28;20215;-91
2021/05/28 02:51:09;;;;;;;8.25;4.75;;;13.40;89.60;;;;;;4972631;28;21005;-91
2021/05/28 02:53:35;;;;;;;6.32;3.78;;;13.30;90.10;;;;;;4973232;28;20180;-91
2021/05/28 02:56:03;;;;;;;5.40;3.57;;;13.30;90.40;;;;;;4973861;28;20200;-91
2021/05/28 02:58:29;;;;;;;6.95;3.72;;;13.40;91.00;;;;;;4973650;28;20443;-91
2021/05/28 03:00:55;;;;;;;6.33;3.77;;;13.40;90.80;;;;;;4973117;28;20606;-91
2021/05/28 03:03:20;;;;;;;5.27;3.23;;;13.30;90.50;;;;;;4974126;28;20415;-90
2021/05/28 03:05:46;;;;;;;7.90;4.13;;;13.30;90.50;;;;;;4974251;28;20415;-90
2021/05/28 03:08:13;;;;;;;6.03;3.25;;;13.30;89.60;;;;;;4973503;28;20994;-90
2021/05/28 03:10:38;;;;;;;5.60;3.53;;;13.30;88.80;;;;;;4974697;28;20210;-84
2021/05/28 03:13:04;;;;;;;3.93;2.67;;;13.20;88.30;;;;;;4975004;28;20177;-84
2021/05/28 03:15:30;;;;;;;8.63;2.97;;;13.10;88.50;;;;;;4975644;28;20415;-83
2021/05/28 03:17:57;;;;;;;5.50;2.90;;;13.10;88.80;;;;;;4976099;28;20538;-84
2021/05/28 03:20:27;;;;;;;7.35;3.08;;;13.00;89.20;;;;;;4975921;28;20180;-84
2021/05/28 03:22:54;;;;;;;7.93;3.35;;;13.00;89.50;;;;;;4975158;28;20176;-84
2021/05/28 03:25:20;;;;;;;9.52;3.40;;;13.00;89.80;;;;;;4975840;28;20172;-85
2021/05/28 03:27:48;;;;;;;4.95;3.33;;;12.90;89.90;;;;;;4976977;28;20172;-85
2021/05/28 03:30:16;;;;;;;7.15;3.60;;;12.90;90.30;;;;;;4975799;28;20180;-84
2021/05/28 03:32:41;;;;;;;8.13;4.15;;;12.90;90.50;;;;;;4976005;28;20180;-84
2021/05/28 03:35:08;;;;;;;9.83;3.53;;;12.80;90.60;;;;;;4975996;28;20172;-84
2021/05/28 03:37:34;;;;;;;6.47;4.00;;;12.80;90.70;;;;;;4976472;28;20416;-85
2021/05/28 03:40:01;;;;;;;4.95;3.58;;;12.80;90.30;;;;;;4975679;28;20187;-84
2021/05/28 03:42:27;;;;;;;6.05;3.35;;;12.80;90.70;;;;;;4975877;28;20203;-85
2021/05/28 03:44:52;;;;;;;7.40;4.03;;;12.80;90.50;;;;;;4975979;28;20176;-85
2021/05/28 03:47:20;;;;;;;6.03;3.30;;;12.80;90.60;;;;;;4975654;28;20422;-82
2021/05/28 03:49:45;;;;;;;13.82;4.00;;;12.80;90.80;;;;;;4975554;28;20459;-83
2021/05/28 03:52:12;;;;;;;6.30;3.70;;;12.80;90.70;;;;;;4975383;28;20214;-83
2021/05/28 03:54:38;;;;;;;7.38;3.75;;;12.90;90.20;;;;;;4975399;28;20262;-84
2021/05/28 03:57:05;;;;;;;6.13;3.00;;;12.90;90.20;;;;;;4973702;28;20186;-84
2021/05/28 03:59:30;;;;;;;8.13;3.80;;;12.90;90.10;;;;;;4972307;28;20207;-84
2021/05/28 04:01:56;;;;;;;5.73;3.20;;;12.90;90.10;;;;;;4972448;28;20242;-84
2021/05/28 04:04:22;;;;;;;5.80;3.10;;;12.90;90.30;;;;;;4971162;28;20415;-84
2021/05/28 04:06:48;;;;;;;4.95;3.00;;;12.90;90.30;;;;;;4972065;28;20639;-85
2021/05/28 04:09:14;;;;;;;8.20;3.70;;;12.90;90.30;;;;;;4970949;28;20203;-84
2021/05/28 04:11:39;;;;;;;7.00;3.20;;;13.00;89.90;;;;;;4970165;28;20475;-85
2021/05/28 04:14:05;;;;;;;4.50;3.53;;;13.00;89.50;;;;;;4971370;28;20451;-84
2021/05/28 04:16:31;;;;;;;8.73;3.80;;;13.00;89.10;;;;;;4970801;28;20176;-85
2021/05/28 04:18:57;;;;;;;9.53;3.90;;;13.00;88.70;;;;;;4970729;28;20648;-85
2021/05/28 04:21:22;;;;;;;11.10;4.50;;;13.00;88.80;;;;;;4970134;28;20461;-85
2021/05/28 04:23:48;;;;;;;6.90;4.00;;;13.00;88.80;;;;;;4970410;28;21013;-85
2021/05/28 04:26:14;;;;;;;8.03;4.60;;;12.90;88.90;;;;;;4970201;28;20640;-85
2021/05/28 04:28:40;;;;;;;7.27;4.93;;;12.90;89.40;;;;;;4970689;28;20226;-84
2021/05/28 04:31:06;;;;;;;7.20;4.33;;;12.90;89.50;;;;;;4970916;28;20455;-86
2021/05/28 04:33:31;;;;;;;8.57;4.57;;;12.80;90.10;;;;;;4971476;28;20222;-87
2021/05/28 04:35:57;;;;;;;7.30;4.33;;;12.80;90.10;;;;;;4971450;28;20180;-87
2021/05/28 04:38:23;;;;;;;10.60;5.53;;;12.80;89.90;;;;;;4971371;28;20179;-85
2021/05/28 04:40:51;;;;;;;9.30;4.30;;;12.80;90.10;;;;;;4970511;28;20756;-85
2021/05/28 04:43:16;;;;;;;11.88;4.45;;;12.80;89.90;;;;;;4972850;28;20217;-86
2021/05/28 04:45:43;;;;;;;10.93;4.80;;;12.80;89.80;;;;;;4974194;28;20172;-85
2021/05/28 04:48:09;;;;;;;9.93;5.32;;;12.80;89.90;;;;;;4974100;28;20423;-86
2021/05/28 04:50:36;;;;;;;15.27;5.33;;;12.80;89.40;;;;;;4974217;28;20533;-85
2021/05/28 04:53:04;;;;;;;8.50;4.63;;;12.70;89.60;;;;;;4974330;28;20416;-86
2021/05/28 04:55:30;;;;;;;8.40;4.70;;;12.70;89.60;;;;;;4974415;28;20176;-86
2021/05/28 04:57:57;;;;;;;8.60;4.88;;;12.70;89.60;;;;;;4974201;28;20172;-85
2021/05/28 05:00:24;;;;;;;9.80;6.60;;;12.70;90.10;;;;;;4974610;28;20541;-84
2021/05/28 05:02:50;;;;;;;10.05;4.80;;;12.70;89.90;;;;;;4977395;28;20180;-84
2021/05/28 05:05:17;;;;;;;19.00;6.20;;;12.70;89.80;;;;;;4976949;28;20679;-85
2021/05/28 05:07:43;;;;;;;17.15;6.13;;;12.70;89.90;;;;;;4977273;28;20647;-87
2021/05/28 05:10:10;;;;;;;12.25;6.32;;;12.70;89.90;;;;;;4974717;28;20298;-86
2021/05/28 05:12:37;;;;;;;11.00;5.85;;;12.80;89.60;;;;;;4974909;28;20257;-87
2021/05/28 05:15:03;;;;;;;14.30;5.65;;;12.90;89.50;;;;;;4974580;28;20182;-87
2021/05/28 05:17:29;;;;;;;13.95;6.15;;;12.90;88.90;;;;;;4974962;28;20187;-87
2021/05/28 05:19:55;;;;;;;14.60;6.47;;;12.80;88.80;;;;;;4974066;28;20545;-87
2021/05/28 05:22:21;;;;;;;12.90;6.05;;;12.80;89.20;;;;;;4973955;28;20981;-86
2021/05/28 05:24:47;;;;;;;14.80;6.27;;;12.90;88.90;;;;;;4973757;28;20186;-86
2021/05/28 05:27:13;;;;;;;14.70;6.30;;;12.80;88.70;;;;;;4973875;28;20318;-87
2021/05/28 05:29:39;;;;;;;11.47;5.90;;;12.80;89.50;;;;;;4973859;28;20664;-87
2021/05/28 05:32:05;;;;;;;12.55;5.72;;;12.80;89.50;;;;;;4973781;28;20853;-87
2021/05/28 05:34:31;;;;;;;15.57;6.70;;;12.90;89.50;;;;;;4974219;28;20176;-87
2021/05/28 05:37:00;;;;;;;15.23;6.25;;;13.00;88.80;;;;;;4974022;28;20175;-87
2021/05/28 05:39:26;;;;;;;11.93;6.45;;;13.00;88.30;;;;;;4973531;28;20186;-85
2021/05/28 05:41:52;;;;;;;11.55;5.75;;;13.10;88.10;;;;;;4979472;28;20192;-82
2021/05/28 05:44:18;;;;;;;13.20;6.53;;;13.20;87.70;;;;;;4977879;28;20186;-84
2021/05/28 05:46:45;;;;;;;15.57;6.80;;;13.30;88.30;;;;;;4977309;28;20171;-84
2021/05/28 05:49:11;;;;;;;16.80;7.05;;;13.50;87.80;;;;;;4974355;28;20454;-86
2021/05/28 05:51:37;;;;;;;13.70;6.68;;;13.50;87.10;;;;;;4974353;28;20227;-84
2021/05/28 05:54:04;;;;;;;23.40;9.85;;;13.40;86.90;;;;;;4973929;28;20176;-84
2021/05/28 05:56:30;;;;;;;15.98;7.45;;;13.40;87.40;;;;;;4976090;28;20176;-83
2021/05/28 05:58:56;;;;;;;16.60;7.00;;;13.40;87.10;;;;;;4976671;28;20653;-83
2021/05/28 06:01:22;;;;;;;16.53;8.30;;;13.40;87.10;;;;;;4974835;28;20501;-83
2021/05/28 06:03:48;;;;;;;18.77;7.22;;;13.50;86.90;;;;;;4974283;28;20464;-84
2021/05/28 06:06:13;;;;;;;18.93;7.40;;;13.40;87.40;;;;;;4977251;28;20766;-82
2021/05/28 06:08:39;;;;;;;21.20;7.07;;;13.30;87.80;;;;;;4976324;28;20208;-81
2021/05/28 06:11:05;;;;;;;17.70;7.53;;;13.30;88.40;;;;;;4976630;28;20572;-85
2021/05/28 06:13:31;;;;;;;17.07;7.50;;;13.30;88.00;;;;;;4973603;28;20432;-86
2021/05/28 06:15:57;;;;;;;19.38;7.47;;;13.40;88.70;;;;;;4973254;28;20411;-86
2021/05/28 06:18:23;;;;;;;15.73;7.53;;;13.40;88.30;;;;;;4973903;28;20182;-86
2021/05/28 06:20:49;;;;;;;14.75;7.85;;;13.50;87.70;;;;;;4973295;28;20203;-86
2021/05/28 06:23:14;;;;;;;18.30;7.40;;;13.60;87.10;;;;;;4973806;28;20180;-86
2021/05/28 06:25:46;;;;;;;13.73;7.03;;;13.70;87.30;;;;;;4973573;28;20938;-86
2021/05/28 06:28:12;;;;;;;19.50;6.85;;;13.80;87.40;;;;;;4973849;28;20838;-86
2021/05/28 06:30:38;;;;;;;18.95;6.60;;;13.90;86.60;;;;;;4973270;28;20678;-86
2021/05/28 06:33:05;;;;;;;13.87;6.23;;;13.90;85.80;;;;;;4972925;28;20168;-86
2021/05/28 06:35:35;;;;;;;13.60;6.88;;;14.00;85.60;;;;;;4973409;28;20525;-86
2021/05/28 06:38:02;;;;;;;11.15;6.30;;;14.10;83.90;;;;;;4973575;28;20164;-86
2021/05/28 06:40:28;;;;;;;13.05;6.97;;;14.30;83.70;;;;;;4972863;28;20518;-86
2021/05/28 06:42:53;;;;;;;14.18;7.32;;;14.30;83.70;;;;;;4973214;28;20225;-86
2021/05/28 06:45:19;;;;;;;13.90;8.30;;;14.40;84.10;;;;;;4973010;28;20184;-86
2021/05/28 06:47:47;;;;;;;18.47;8.47;;;14.40;83.90;;;;;;4973974;28;20426;-80
2021/05/28 06:50:14;;;;;;;10.63;5.30;;;14.60;83.00;;;;;;4974360;28;20837;-86
2021/05/28 06:52:40;;;;;;;16.02;7.10;;;14.70;82.30;;;;;;4973757;28;20168;-86
2021/05/28 06:55:07;;;;;;;18.92;7.93;;;14.90;81.70;;;;;;4973968;28;20172;-85
2021/05/28 06:57:33;;;;;;;15.93;8.60;;;15.00;80.80;;;;;;4973338;28;20658;-86
2021/05/28 06:59:59;;;;;;;12.32;6.80;;;15.10;80.50;;;;;;4973494;28;20172;-85
2021/05/28 07:02:26;;;;;;;19.73;7.95;;;15.10;80.50;;;;;;4973755;28;20200;-85
2021/05/28 07:04:52;;;;;;;17.38;9.35;;;15.10;80.50;;;;;;4975251;28;20183;-84
2021/05/28 07:07:18;;;;;;;15.02;7.55;;;15.10;80.60;;;;;;4974977;28;20253;-79
2021/05/28 07:09:45;;;;;;;11.32;6.03;;;15.00;79.50;;;;;;4977681;28;20211;-85
2021/05/28 07:12:11;;;;;;;12.20;6.43;;;15.00;80.20;;;;;;4972241;28;20731;-86
2021/05/28 07:14:48;;;;;;;17.80;7.32;;;15.10;79.90;;;;;;4973462;28;20203;-85
2021/05/28 07:17:14;;;;;;;14.65;6.80;;;14.90;80.80;;;;;;4972356;28;20156;-86
2021/05/28 07:19:40;;;;;;;12.20;6.33;;;14.90;81.00;;;;;;4972376;28;20592;-86
2021/05/28 07:22:06;;;;;;;16.27;6.60;;;15.10;80.50;;;;;;4971793;28;20192;-86
2021/05/28 07:24:32;;;;;;;14.40;7.47;;;15.20;80.50;;;;;;4971910;28;20184;-86
2021/05/28 07:26:58;;;;;;;9.73;7.20;;;15.20;79.90;;;;;;4972519;28;20264;-86
2021/05/28 07:29:23;;;;;;;15.77;8.00;;;15.30;81.00;;;;;;4972562;28;20203;-87
2021/05/28 07:31:50;;;;;;;15.47;8.40;;;15.30;80.10;;;;;;4971951;28;20807;-86
2021/05/28 07:34:15;;;;;;;15.18;7.78;;;15.20;79.60;;;;;;4972434;28;20180;-86
2021/05/28 07:36:41;;;;;;;10.70;6.10;;;15.40;80.30;;;;;;4972563;28;20376;-86
2021/05/28 07:39:07;;;;;;;10.00;5.97;;;15.60;78.50;;;;;;4972670;28;20415;-86
2021/05/28 07:41:33;;;;;;;16.50;5.93;;;15.70;77.60;;;;;;4972487;28;20463;-86
2021/05/28 07:43:59;;;;;;;10.90;6.93;;;15.80;77.40;;;;;;4972394;28;20422;-86
2021/05/28 07:46:25;;;;;;;20.40;7.50;;;16.00;77.10;;;;;;4972246;28;20473;-86
2021/05/28 07:48:51;;;;;;;13.18;7.30;;;16.10;76.20;;;;;;4971922;28;20459;-86
2021/05/28 07:51:16;;;;;;;10.50;5.70;;;16.10;77.30;;;;;;4971835;28;20526;-86
2021/05/28 07:53:43;;;;;;;13.30;7.00;;;16.10;75.50;;;;;;4972404;28;20443;-86
2021/05/28 07:56:08;;;;;;;12.07;6.78;;;16.00;75.10;;;;;;4972329;28;20241;-86
2021/05/28 07:58:34;;;;;;;14.20;7.00;;;15.90;76.40;;;;;;4972382;28;20636;-86
2021/05/28 08:01:00;;;;;;;12.20;7.20;;;16.00;78.50;;;;;;4972054;28;20196;-86
2021/05/28 08:03:26;;;;;;;15.50;7.13;;;16.10;78.30;;;;;;4972437;28;20224;-86
2021/05/28 08:05:52;;;;;;;12.60;6.47;;;16.30;76.90;;;;;;4972331;28;20431;-87
2021/05/28 08:08:19;;;;;;;13.82;6.75;;;16.40;75.30;;;;;;4972210;28;20942;-87
2021/05/28 08:10:46;;;;;;;8.85;5.47;;;16.30;73.90;;;;;;4971414;28;20230;-86
2021/05/28 08:13:12;;;;;;;12.52;6.53;;;16.30;74.50;;;;;;4972296;28;20176;-86
2021/05/28 08:15:38;;;;;;;18.70;6.27;;;16.30;74.10;;;;;;4972566;28;20194;-86
2021/05/28 08:18:04;;;;;;;11.55;7.05;;;16.40;72.70;;;;;;4971706;28;20931;-86
2021/05/28 08:20:31;;;;;;;10.57;6.82;;;16.50;73.80;;;;;;4972477;28;20258;-87
2021/05/28 08:22:59;;;;;;;10.13;4.90;;;16.60;74.50;;;;;;4971905;28;20171;-87
2021/05/28 08:25:25;;;;;;;10.38;4.60;;;16.70;70.90;;;;;;4971969;28;20172;-86
2021/05/28 08:27:52;;;;;;;9.68;5.65;;;16.70;70.90;;;;;;4972006;28;20210;-86
2021/05/28 08:30:18;;;;;;;11.07;5.63;;;16.90;70.50;;;;;;4971662;28;20207;-87
2021/05/28 08:32:45;;;;;;;11.80;5.32;;;16.80;70.20;;;;;;4971721;28;20172;-86
2021/05/28 08:35:11;;;;;;;11.00;5.22;;;16.90;70.90;;;;;;4972429;28;20176;-86
2021/05/28 08:37:37;;;;;;;12.43;5.23;;;16.80;67.80;;;;;;4972227;28;20614;-87
2021/05/28 08:40:04;;;;;;;14.05;5.85;;;16.70;69.40;;;;;;4972139;28;20838;-86
2021/05/28 08:42:30;;;;;;;9.85;5.65;;;16.80;70.50;;;;;;4971325;28;20204;-86
2021/05/28 08:44:56;;;;;;;13.05;6.07;;;16.90;72.40;;;;;;4971828;28;20176;-86
2021/05/28 08:47:23;;;;;;;11.38;5.65;;;17.00;71.60;;;;;;4971568;28;20226;-86
2021/05/28 08:49:51;;;;;;;20.10;6.00;;;17.00;72.70;;;;;;4972378;28;20342;-86
2021/05/28 08:52:18;;;;;;;10.75;6.43;;;17.10;71.30;;;;;;4971721;28;20286;-86
2021/05/28 08:54:44;;;;;;;17.08;5.97;;;17.10;71.70;;;;;;4972211;28;20184;-86
2021/05/28 08:57:10;;;;;;;19.17;5.93;;;17.10;71.30;;;;;;4972116;28;20291;-86
2021/05/28 08:59:37;;;;;;;8.52;5.53;;;17.20;71.70;;;;;;4971782;28;20450;-86
2021/05/28 09:02:02;;;;;;;9.25;4.93;;;17.30;69.50;;;;;;4973254;28;20691;-85
2021/05/28 09:04:28;;;;;;;11.23;5.40;;;17.40;68.80;;;;;;4971378;28;20176;-86
2021/05/28 09:06:54;;;;;;;8.40;5.23;;;17.40;67.30;;;;;;4971461;28;20415;-85
2021/05/28 09:09:27;;;;;;;8.13;4.50;;;17.60;66.40;;;;;;4971960;28;20458;-86
2021/05/28 09:11:56;;;;;;;8.75;5.55;;;17.80;66.30;;;;;;4975697;28;20535;-84
2021/05/28 09:14:32;;;;;;;9.40;5.43;;;17.90;67.10;;;;;;4975929;28;20259;-85
2021/05/28 09:16:59;;;;;;;7.55;3.95;;;18.10;67.10;;;;;;4975292;28;20267;-85
2021/05/28 09:19:25;;;;;;;7.82;4.40;;;18.20;65.50;;;;;;4975236;28;20183;-85
2021/05/28 09:22:00;;;;;;;11.98;4.68;;;18.30;65.60;;;;;;4973663;28;20191;-85
2021/05/28 09:24:35;;;;;;;8.60;5.70;;;18.20;63.40;;;;;;4974640;28;20180;-86
2021/05/28 09:27:26;;;;;;;7.88;4.50;;;18.10;64.40;;;;;;4973919;28;20160;-85
2021/05/28 09:30:04;;;;;;;9.10;5.38;;;17.90;63.30;;;;;;4976625;28;20227;-85
2021/05/28 09:32:31;;;;;;;8.35;5.68;;;17.90;66.00;;;;;;4977143;28;20200;-85
2021/05/28 09:34:57;;;;;;;12.35;5.40;;;17.70;66.60;;;;;;4979850;28;20172;-85
2021/05/28 09:37:38;;;;;;;13.43;5.90;;;17.60;67.40;;;;;;4978910;28;20744;-85
2021/05/28 09:40:06;;;;;;;10.90;4.93;;;17.70;66.90;;;;;;4978071;28;20184;-85
2021/05/28 09:42:57;;;;;;;8.02;4.63;;;17.60;65.60;;;;;;4977720;28;20196;-85
2021/05/28 09:45:38;;;;;;;16.08;5.53;;;17.50;66.30;;;;;;4976810;28;20718;-85
2021/05/28 09:48:14;;;;;;;9.02;4.65;;;17.30;64.80;;;;;;4975739;28;20570;-86
2021/05/28 09:50:49;;;;;;;9.85;4.32;;;17.20;66.60;;;;;;4976045;28;20191;-85
2021/05/28 09:53:30;;;;;;;6.50;4.18;;;17.00;65.80;;;;;;4977130;28;20156;-85
2021/05/28 09:55:57;;;;;;;8.60;5.00;;;17.00;65.30;;;;;;4977665;28;20220;-86
2021/05/28 09:58:24;;;;;;;10.07;5.22;;;17.00;65.50;;;;;;4977430;28;20176;-85
2021/05/28 10:00:51;;;;;;;22.10;5.18;;;16.90;65.60;;;;;;4976295;28;20861;-85
2021/05/28 10:03:26;;;;;;;9.60;4.78;;;16.90;66.40;;;;;;4976746;28;20322;-85
2021/05/28 10:05:57;;;;;;;7.93;4.10;;;16.90;66.20;;;;;;4977364;28;20254;-85
2021/05/28 10:08:25;;;;;;;13.65;4.80;;;17.00;66.00;;;;;;4976868;28;20212;-85
2021/05/28 10:10:52;;;;;;;12.93;5.25;;;17.10;68.10;;;;;;4977011;28;20219;-85
2021/05/28 10:13:21;;;;;;;9.55;4.10;;;17.10;67.30;;;;;;4978565;28;20176;-86
2021/05/28 10:15:55;;;;;;;12.65;4.03;;;17.30;66.20;;;;;;4976911;28;20182;-85
2021/05/28 10:18:22;;;;;;;14.02;4.45;;;17.30;63.40;;;;;;4977460;28;20173;-85
2021/05/28 10:20:53;;;;;;;5.90;3.10;;;17.20;63.70;;;;;;4976262;28;20199;-85
2021/05/28 10:23:20;;;;;;;6.22;3.78;;;17.20;61.20;;;;;;4977444;28;20232;-85
2021/05/28 10:25:47;;;;;;;7.53;4.20;;;17.10;62.60;;;;;;4976462;28;20172;-85
2021/05/28 10:28:21;;;;;;;8.50;4.28;;;17.10;63.30;;;;;;4977435;28;20180;-85
2021/05/28 10:30:49;;;;;;;6.68;3.75;;;16.90;63.50;;;;;;4977422;28;20589;-85
2021/05/28 10:33:23;;;;;;;6.15;3.65;;;17.00;63.30;;;;;;4977907;28;20171;-85
2021/05/28 10:35:51;;;;;;;7.70;3.70;;;17.10;63.30;;;;;;4976824;28;20182;-84
2021/05/28 10:38:29;;;;;;;9.38;4.57;;;17.20;62.30;;;;;;4978233;28;20172;-85
2021/05/28 10:41:15;;;;;;;9.82;5.57;;;17.40;61.70;;;;;;4975898;28;20196;-85
2021/05/28 10:43:50;;;;;;;15.93;5.25;;;17.60;61.90;;;;;;4976920;28;20659;-85
2021/05/28 10:46:18;;;;;;;14.02;5.60;;;18.00;61.00;;;;;;4978145;28;20171;-85
2021/05/28 10:48:43;;;;;;;8.35;5.50;;;18.40;59.10;;;;;;4977505;28;20203;-85
2021/05/28 10:51:24;;;;;;;8.43;5.37;;;18.70;58.30;;;;;;4978369;28;20303;-85
2021/05/28 10:53:53;;;;;;;14.65;5.35;;;18.80;58.40;;;;;;4978118;28;20250;-86
2021/05/28 10:56:22;;;;;;;9.50;4.70;;;19.00;58.50;;;;;;4975179;28;20190;-85
2021/05/28 10:58:55;;;;;;;15.02;5.05;;;18.80;59.10;;;;;;4975706;28;20176;-85
2021/05/28 11:01:35;;;;;;;10.82;4.80;;;18.90;59.20;;;;;;4976396;28;20213;-84
2021/05/28 11:04:03;;;;;;;9.30;4.55;;;19.10;58.40;;;;;;4976531;28;20186;-85
2021/05/28 11:06:54;;;;;;;6.95;5.22;;;19.60;59.20;;;;;;4977382;28;20351;-85
2021/05/28 11:09:38;;;;;;;6.13;3.72;;;20.10;55.70;;;;;;4967094;28;20211;-86
2021/05/28 11:12:09;;;;;;;7.25;3.33;;;20.50;53.80;;;;;;4975939;28;20248;-85
2021/05/28 11:14:36;;;;;;;5.28;3.22;;;20.80;53.20;;;;;;4975533;28;20254;-85
2021/05/28 11:17:02;;;;;;;7.47;3.17;;;21.10;52.80;;;;;;4975792;28;20644;-86
2021/05/28 11:19:32;;;;;;;5.90;3.30;;;21.50;47.90;;;;;;4975941;28;20172;-86
2021/05/28 11:22:00;;;;;;;5.80;2.50;;;21.50;48.40;;;;;;4975257;28;20196;-86
2021/05/28 11:24:56;;;;;;;4.97;2.70;;;21.50;46.70;;;;;;4974898;28;20180;-86
2021/05/28 11:27:23;;;;;;;4.50;2.83;;;21.20;48.70;;;;;;4975563;28;20168;-84
2021/05/28 11:30:04;;;;;;;7.65;2.92;;;20.90;48.30;;;;;;4975388;28;20238;-85
2021/05/28 11:32:34;;;;;;;5.40;3.58;;;20.60;51.10;;;;;;4975719;28;20196;-85
2021/05/28 11:35:40;;;;;;;8.63;3.03;;;20.30;49.20;;;;;;4976329;28;20176;-85
2021/05/28 11:38:08;;;;;;;9.45;3.00;;;20.00;50.80;;;;;;4975446;28;20251;-84
2021/05/28 11:40:34;;;;;;;4.65;2.55;;;19.70;51.10;;;;;;4975988;28;20280;-85
2021/05/28 11:43:04;;;;;;;6.40;4.03;;;19.50;51.60;;;;;;4975679;28;20199;-85
2021/05/28 11:45:30;;;;;;;6.28;3.90;;;19.50;52.60;;;;;;4976211;28;20243;-85
2021/05/28 11:47:56;;;;;;;3.60;2.60;;;19.40;54.60;;;;;;4974709;28;20200;-85
2021/05/28 11:50:23;;;;;;;5.43;3.60;;;19.40;55.50;;;;;;4973937;28;20680;-85
2021/05/28 11:52:59;;;;;;;6.05;2.88;;;19.50;54.50;;;;;;4974874;28;20426;-85
2021/05/28 11:55:27;;;;;;;4.78;3.08;;;19.60;54.70;;;;;;4975434;28;20166;-85
2021/05/28 11:58:01;;;;;;;7.85;2.97;;;19.70;52.10;;;;;;4974269;28;20219;-85
2021/05/28 12:00:28;;;;;;;4.78;2.72;;;19.90;52.90;;;;;;4974620;28;20190;-84
2021/05/28 12:02:58;;;;;;;4.55;3.00;;;20.40;53.40;;;;;;4975313;28;20179;-85
2021/05/28 12:05:57;;;;;;;6.28;2.97;;;21.00;51.70;;;;;;4974916;28;20213;-85
2021/05/28 12:08:29;;;;;;;6.85;3.30;;;21.50;49.50;;;;;;4962243;28;20187;-85
2021/05/28 12:11:05;;;;;;;7.25;3.10;;;21.90;47.50;;;;;;4974411;28;20207;-85
2021/05/28 12:13:33;;;;;;;5.95;3.25;;;21.90;46.10;;;;;;4974251;28;20164;-85
2021/05/28 12:16:05;;;;;;;5.63;2.88;;;21.80;46.20;;;;;;4974782;28;20182;-85
2021/05/28 12:18:32;;;;;;;3.15;1.95;;;21.80;46.20;;;;;;4974248;28;20169;-85
2021/05/28 12:21:09;;;;;;;8.63;2.75;;;21.40;44.50;;;;;;4974243;28;20254;-86
2021/05/28 12:23:40;;;;;;;2.72;1.70;;;21.10;45.20;;;;;;4973482;28;20171;-85
2021/05/28 12:26:08;;;;;;;3.25;2.08;;;20.60;45.00;;;;;;4973594;28;20206;-85
2021/05/28 12:28:39;;;;;;;6.25;2.20;;;20.40;47.00;;;;;;4975906;28;20206;-85
2021/05/28 12:31:11;;;;;;;4.82;1.75;;;20.70;45.70;;;;;;4976062;28;20198;-85
2021/05/28 12:33:43;;;;;;;2.38;1.63;;;21.10;45.20;;;;;;4976466;28;20196;-85
2021/05/28 12:36:13;;;;;;;3.15;2.13;;;21.70;45.20;;;;;;4975696;28;20194;-85
2021/05/28 12:38:51;;;;;;;6.07;1.92;;;22.20;43.70;;;;;;4974540;28;20171;-86
2021/05/28 12:41:28;;;;;;;4.32;1.60;;;22.40;43.30;;;;;;4973539;28;20196;-86
2021/05/28 12:43:55;;;;;;;2.72;1.80;;;22.10;43.70;;;;;;4974094;28;20205;-85
2021/05/28 12:46:28;;;;;;;3.25;2.22;;;21.70;44.90;;;;;;4973198;28;20183;-86